Time;durP1;ratioP1;P1;durP2;ratioP2;P2;SDS_P1;SDS_P2;PMS_P1;PMS_P2;Temp;Humidity;BMP_temperature;BMP_pressure;BME280_temperature;BME280_humidity;BME280_pressure;Samples;Min_cycle;Max_cycle;Signal;HPM_P1;HPM_P2
2021/11/10 00:01:24;;;;;;;7.05;6.07;;;;;;;28.31;18.57;96036.28;5074169;28;20056;-52
2021/11/10 00:03:51;;;;;;;6.93;6.22;;;;;;;28.09;18.94;96047.78;5075098;28;20431;-50
2021/11/10 00:06:20;;;;;;;7.15;5.75;;;;;;;28.10;18.75;96042.03;5074923;28;20048;-49
2021/11/10 00:08:47;;;;;;;6.50;5.68;;;;;;;28.08;19.23;96041.63;5055015;28;20041;-47
2021/11/10 00:11:14;;;;;;;6.53;5.60;;;;;;;28.28;18.91;96044.28;5074668;28;20052;-51
2021/11/10 00:13:41;;;;;;;7.93;5.95;;;;;;;28.28;18.70;96039.69;5074849;28;20052;-49
2021/11/10 00:16:08;;;;;;;6.88;5.60;;;;;;;28.21;18.71;96043.00;5073871;28;20060;-55
2021/11/10 00:18:35;;;;;;;6.05;5.28;;;;;;;27.91;18.99;96044.78;5074245;28;20063;-53
2021/11/10 00:21:02;;;;;;;6.10;5.50;;;;;;;27.80;19.26;96043.81;5073309;28;20473;-53
2021/11/10 00:23:29;;;;;;;7.78;6.40;;;;;;;27.88;19.14;96045.50;5074515;28;20454;-54
2021/11/10 00:25:57;;;;;;;7.63;6.13;;;;;;;27.89;19.13;96041.69;5062381;28;20059;-57
2021/11/10 00:28:24;;;;;;;6.03;5.43;;;;;;;27.97;18.95;96053.34;5059715;28;20056;-56
2021/11/10 00:30:52;;;;;;;7.20;5.68;;;;;;;28.05;18.90;96050.41;5074396;28;20355;-57
2021/11/10 00:33:19;;;;;;;5.90;5.28;;;;;;;28.02;19.27;96044.97;5073926;28;20455;-55
2021/11/10 00:35:46;;;;;;;8.40;5.18;;;;;;;27.80;19.15;96051.88;5074538;28;20055;-54
2021/11/10 00:38:13;;;;;;;6.55;5.50;;;;;;;27.96;19.13;96052.56;5038942;28;20041;-55
2021/11/10 00:40:42;;;;;;;6.95;5.50;;;;;;;27.88;19.25;96046.28;5073956;28;20079;-51
2021/11/10 00:43:09;;;;;;;5.63;5.03;;;;;;;27.84;19.00;96045.41;5056572;28;20212;-50
2021/11/10 00:45:36;;;;;;;6.85;4.88;;;;;;;28.09;18.88;96050.47;5073343;28;20463;-50
2021/11/10 00:48:04;;;;;;;5.57;4.97;;;;;;;27.77;19.00;96047.22;5056167;28;20052;-54
2021/11/10 00:50:32;;;;;;;5.68;5.00;;;;;;;28.05;18.83;96039.66;5074155;28;20050;-55
2021/11/10 00:52:59;;;;;;;5.80;4.70;;;;;;;28.10;18.93;96042.03;5074408;28;20048;-54
2021/11/10 00:55:26;;;;;;;6.22;5.30;;;;;;;28.18;18.70;96038.34;5074151;28;20052;-55
2021/11/10 00:57:53;;;;;;;5.88;4.63;;;;;;;28.14;18.86;96042.13;5055914;28;20051;-54
2021/11/10 01:00:22;;;;;;;6.25;4.55;;;;;;;28.01;18.47;96038.03;5072714;28;20048;-54
2021/11/10 01:02:49;;;;;;;5.20;4.70;;;;;;;27.87;18.93;96039.38;5054010;28;20284;-54
2021/11/10 01:05:16;;;;;;;5.70;4.68;;;;;;;27.77;18.87;96036.47;5056250;28;20056;-53
2021/11/10 01:07:44;;;;;;;6.15;5.40;;;;;;;27.96;18.89;96039.13;5074012;28;20048;-53
2021/11/10 01:10:12;;;;;;;6.82;5.22;;;;;;;28.04;18.36;96038.09;5073332;28;20044;-56
2021/11/10 01:12:39;;;;;;;6.20;5.13;;;;;;;28.16;18.35;96037.16;5056343;28;20059;-54
2021/11/10 01:15:09;;;;;;;6.82;5.63;;;;;;;28.10;18.38;96035.88;5055119;28;20102;-53
2021/11/10 01:17:37;;;;;;;6.25;5.20;;;;;;;28.08;18.62;96033.56;5056241;28;20052;-52
2021/11/10 01:20:06;;;;;;;6.40;5.35;;;;;;;27.76;18.98;96037.59;5054936;28;20055;-49
2021/11/10 01:22:34;;;;;;;6.55;5.65;;;;;;;27.94;18.59;96049.47;5055134;28;20481;-52
2021/11/10 01:25:03;;;;;;;8.50;5.38;;;;;;;28.07;18.05;96044.66;5056196;28;20052;-53
2021/11/10 01:27:30;;;;;;;5.78;5.00;;;;;;;28.08;18.46;96036.25;5055731;28;20056;-53
2021/11/10 01:29:57;;;;;;;6.43;5.78;;;;;;;27.88;18.40;96042.81;5073286;28;20513;-49
2021/11/10 01:32:24;;;;;;;6.45;5.25;;;;;;;27.91;18.73;96050.16;5055524;28;20451;-54
2021/11/10 01:34:52;;;;;;;6.80;5.68;;;;;;;27.86;18.68;96053.94;5056557;28;20048;-54
2021/11/10 01:37:20;;;;;;;6.07;5.35;;;;;;;27.82;18.53;96052.28;5062446;28;20072;-58
2021/11/10 01:39:48;;;;;;;7.30;6.40;;;;;;;27.84;18.64;96058.84;5054424;28;20354;-48
2021/11/10 01:42:19;;;;;;;8.32;6.25;;;;;;;27.63;18.73;96061.94;5060282;28;20051;-54
2021/11/10 01:44:50;;;;;;;9.00;7.07;;;;;;;27.71;18.71;96048.63;5060281;28;20405;-51
2021/11/10 01:47:18;;;;;;;8.02;6.65;;;;;;;27.60;18.52;96057.25;5059495;28;20040;-51
2021/11/10 01:49:45;;;;;;;20.88;8.32;;;;;;;27.56;18.87;96051.00;5075976;28;20051;-51
2021/11/10 01:52:15;;;;;;;9.35;7.47;;;;;;;27.52;18.63;96042.13;5059886;28;20048;-54
2021/11/10 01:54:43;;;;;;;8.95;7.25;;;;;;;27.67;18.48;96053.16;5059895;28;20040;-54
2021/11/10 01:57:15;;;;;;;10.38;7.82;;;;;;;27.52;18.41;96042.13;5059664;28;20040;-54
2021/11/10 02:00:01;;;;;;;9.95;7.57;;;;;;;27.47;18.79;96042.41;5056862;28;20052;-52
2021/11/10 02:02:30;;;;;;;8.80;7.35;;;;;;;27.63;18.51;96045.81;5059050;28;20049;-55
2021/11/10 02:05:05;;;;;;;8.07;7.05;;;;;;;27.55;18.79;96038.72;5059633;28;20056;-55
2021/11/10 02:07:35;;;;;;;8.35;6.97;;;;;;;27.80;18.56;96049.97;5059066;28;20052;-55
2021/11/10 02:10:05;;;;;;;8.50;6.93;;;;;;;27.51;18.26;96047.84;5059104;28;20045;-54
2021/11/10 02:12:32;;;;;;;7.80;6.68;;;;;;;27.26;18.99;96047.34;5077663;28;20438;-56
2021/11/10 02:15:01;;;;;;;7.88;6.07;;;;;;;27.43;18.60;96052.31;5059820;28;20055;-58
2021/11/10 02:17:28;;;;;;;7.97;5.70;;;;;;;27.39;18.68;96051.47;5059757;28;20101;-55
2021/11/10 02:19:59;;;;;;;6.72;5.68;;;;;;;27.41;18.37;96049.19;5058913;28;20435;-51
2021/11/10 02:22:33;;;;;;;6.60;5.78;;;;;;;27.64;18.43;96047.38;5059422;28;20056;-52
2021/11/10 02:25:01;;;;;;;7.30;5.68;;;;;;;27.26;18.60;96050.03;5077102;28;20045;-51
2021/11/10 02:27:35;;;;;;;6.88;6.15;;;;;;;27.08;19.17;96056.94;5056013;28;20041;-54
2021/11/10 02:30:16;;;;;;;6.75;5.70;;;;;;;27.47;18.83;96058.53;5054358;28;20055;-55
2021/11/10 02:32:48;;;;;;;6.53;5.68;;;;;;;27.32;18.57;96062.03;5057573;28;20071;-54
2021/11/10 02:35:19;;;;;;;;;;;;;;;27.11;18.99;96056.25;5075893;28;20048;-55
2021/11/10 02:37:52;;;;;;;8.57;6.00;;;;;;;27.34;18.54;96055.22;5058948;28;20294;-57
2021/11/10 02:40:20;;;;;;;7.65;5.97;;;;;;;27.17;19.15;96062.88;5057969;28;20051;-49
2021/11/10 02:42:49;;;;;;;6.10;5.50;;;;;;;27.56;18.29;96052.91;5075185;28;20053;-53
2021/11/10 02:45:16;;;;;;;6.78;5.75;;;;;;;27.34;18.71;96057.13;5076436;28;20044;-47
2021/11/10 02:47:43;;;;;;;6.25;5.47;;;;;;;27.23;19.00;96056.09;5076386;28;20056;-58
2021/11/10 02:50:11;;;;;;;9.48;5.72;;;;;;;27.24;18.39;96055.75;5058491;28;20044;-50
2021/11/10 02:52:38;;;;;;;6.93;5.70;;;;;;;27.06;18.93;96065.31;5058485;28;20466;-50
2021/11/10 02:55:07;;;;;;;6.70;5.78;;;;;;;27.39;18.35;96056.81;5057714;28;20051;-53
2021/11/10 02:57:34;;;;;;;7.18;5.93;;;;;;;27.30;18.53;96048.19;5056413;28;20052;-50
2021/11/10 03:00:06;;;;;;;7.45;5.85;;;;;;;27.42;18.09;96058.03;5069708;28;20052;-55
2021/11/10 03:02:34;;;;;;;7.43;5.47;;;;;;;27.13;18.64;96059.34;5047975;28;20060;-57
2021/11/10 03:05:06;;;;;;;5.53;4.88;;;;;;;27.18;18.60;96061.75;5054893;28;20045;-57
2021/11/10 03:07:33;;;;;;;6.10;5.10;;;;;;;27.52;18.38;96060.13;5038348;28;20051;-53
2021/11/10 03:10:05;;;;;;;5.35;4.82;;;;;;;27.33;18.60;96060.94;5048821;28;20052;-50
2021/11/10 03:12:32;;;;;;;6.00;4.63;;;;;;;27.29;18.37;96046.63;5072099;28;20040;-50
2021/11/10 03:15:01;;;;;;;5.78;4.55;;;;;;;27.28;18.35;96061.19;5058092;28;20052;-50
2021/11/10 03:17:29;;;;;;;6.00;4.60;;;;;;;26.95;18.94;96062.41;5051604;28;20056;-56
2021/11/10 03:19:59;;;;;;;5.63;4.20;;;;;;;27.36;18.37;96057.53;5067933;28;20063;-50
2021/11/10 03:22:27;;;;;;;5.30;4.03;;;;;;;27.52;17.86;96066.28;5054192;28;20363;-54
2021/11/10 03:24:54;;;;;;;5.45;3.92;;;;;;;27.45;18.09;96060.00;5057315;28;20044;-56
2021/11/10 03:27:24;;;;;;;4.22;3.45;;;;;;;27.63;17.95;96061.94;5057862;28;20044;-55
2021/11/10 03:29:52;;;;;;;3.45;2.85;;;;;;;27.44;18.09;96061.91;5056779;28;20052;-55
2021/11/10 03:32:23;;;;;;;3.97;3.22;;;;;;;27.68;17.81;96071.63;5074872;28;20040;-55
2021/11/10 03:34:52;;;;;;;3.10;2.80;;;;;;;27.55;17.95;96062.88;5057984;28;20465;-55
2021/11/10 03:37:23;;;;;;;3.25;2.80;;;;;;;27.27;18.41;96081.88;5057734;28;20051;-53
2021/11/10 03:39:50;;;;;;;3.90;2.95;;;;;;;27.35;18.35;96074.78;5057465;28;20052;-54
2021/11/10 03:42:18;;;;;;;3.83;2.83;;;;;;;27.45;17.87;96066.16;5057533;28;20044;-55
2021/11/10 03:44:45;;;;;;;3.17;2.88;;;;;;;27.54;17.73;96077.44;5055743;28;20348;-47
2021/11/10 03:47:12;;;;;;;3.30;2.78;;;;;;;27.41;17.89;96075.28;5057545;28;20040;-52
2021/11/10 03:49:40;;;;;;;5.38;2.60;;;;;;;27.57;17.78;96081.34;5057217;28;20049;-56
2021/11/10 03:52:08;;;;;;;4.22;2.88;;;;;;;27.52;18.07;96085.09;5057272;28;20036;-49
2021/11/10 03:54:36;;;;;;;3.40;3.10;;;;;;;27.41;17.74;96086.78;5057483;28;20040;-50
2021/11/10 03:57:03;;;;;;;3.95;3.35;;;;;;;27.43;17.74;96094.50;5057428;28;20052;-55
2021/11/10 03:59:31;;;;;;;4.18;3.70;;;;;;;27.55;17.55;96086.28;5074263;28;20052;-53
2021/11/10 04:01:58;;;;;;;4.35;3.95;;;;;;;27.67;17.84;96082.72;5055671;28;20382;-57
2021/11/10 04:04:26;;;;;;;4.72;3.70;;;;;;;27.38;17.95;96095.56;5074958;28;20055;-56
2021/11/10 04:06:53;;;;;;;5.93;3.78;;;;;;;27.36;17.65;96089.75;5057253;28;20055;-52
2021/11/10 04:09:20;;;;;;;5.55;3.92;;;;;;;27.52;17.82;96087.78;5056797;28;20055;-56
2021/11/10 04:11:47;;;;;;;5.55;4.28;;;;;;;27.53;17.70;96081.28;5057168;28;20343;-56
2021/11/10 04:14:15;;;;;;;4.93;3.85;;;;;;;27.27;17.97;96086.47;5056832;28;20123;-54
2021/11/10 04:16:43;;;;;;;6.90;4.15;;;;;;;27.23;18.08;96085.63;5057148;28;20048;-51
2021/11/10 04:19:11;;;;;;;5.85;4.50;;;;;;;27.20;17.96;96094.38;5056872;28;20055;-50
2021/11/10 04:21:39;;;;;;;6.80;4.32;;;;;;;27.57;17.46;96084.78;5074592;28;20036;-49
2021/11/10 04:24:08;;;;;;;4.78;4.15;;;;;;;27.41;17.90;96100.22;5056720;28;20470;-56
2021/11/10 04:26:38;;;;;;;5.63;4.45;;;;;;;27.28;17.60;96094.19;5056954;28;20078;-55
2021/11/10 04:29:13;;;;;;;5.55;4.10;;;;;;;27.25;18.06;96094.09;5056466;28;20052;-54
2021/11/10 04:31:40;;;;;;;6.55;4.57;;;;;;;27.19;18.05;96090.94;5067130;28;20041;-55
2021/11/10 04:34:08;;;;;;;5.50;4.47;;;;;;;27.47;17.45;96082.69;5050555;28;20056;-54
2021/11/10 04:36:35;;;;;;;5.97;4.45;;;;;;;27.46;17.75;96081.13;5053498;28;20055;-55
2021/11/10 04:39:05;;;;;;;6.03;4.10;;;;;;;27.72;17.47;96082.44;5072833;28;20055;-54
2021/11/10 04:41:34;;;;;;;4.93;4.13;;;;;;;27.47;17.42;96087.28;5074506;28;20051;-55
2021/11/10 04:44:03;;;;;;;7.45;3.45;;;;;;;27.60;17.35;96083.34;5056742;28;20052;-55
2021/11/10 04:46:34;;;;;;;4.70;3.28;;;;;;;28.55;16.71;96086.22;5045666;28;20080;-55
2021/11/10 04:49:04;;;;;;;4.68;3.65;;;;;;;27.72;17.35;96079.75;5048890;28;20052;-56
2021/11/10 04:51:32;;;;;;;5.82;4.18;;;;;;;27.50;17.72;96079.28;5048890;28;20052;-51
2021/11/10 04:54:04;;;;;;;7.85;4.28;;;;;;;27.66;17.52;96083.84;5057065;28;20045;-51
2021/11/10 04:56:31;;;;;;;7.75;4.45;;;;;;;27.29;17.38;96094.97;5036825;28;20056;-53
2021/11/10 04:58:58;;;;;;;7.53;4.53;;;;;;;27.53;17.12;96104.66;5029400;28;20041;-53
2021/11/10 05:01:26;;;;;;;7.55;5.18;;;;;;;27.25;17.32;96094.09;5051397;28;20052;-54
2021/11/10 05:03:58;;;;;;;7.43;5.65;;;;;;;27.37;17.09;96102.06;5049973;28;20053;-52
2021/11/10 05:06:25;;;;;;;6.90;6.20;;;;;;;26.90;17.68;96102.13;5053170;28;20502;-54
2021/11/10 05:08:54;;;;;;;6.25;5.43;;;;;;;26.88;17.81;96096.34;5036933;28;20052;-53
2021/11/10 05:11:23;;;;;;;6.95;5.45;;;;;;;27.66;17.30;96091.91;5054370;28;20076;-54
2021/11/10 05:13:51;;;;;;;6.25;5.20;;;;;;;28.40;16.78;96100.59;5052921;28;20045;-59
2021/11/10 05:16:19;;;;;;;8.77;4.75;;;;;;;28.22;17.06;96092.19;5049287;28;20045;-57
2021/11/10 05:18:49;;;;;;;7.63;5.10;;;;;;;28.75;16.78;96093.09;5039501;28;20079;-57
2021/11/10 05:21:20;;;;;;;4.45;3.88;;;;;;;27.55;17.55;96079.00;5036017;28;20044;-56
2021/11/10 05:23:47;;;;;;;6.72;4.78;;;;;;;27.18;17.89;96088.59;5043400;28;20072;-52
2021/11/10 05:26:14;;;;;;;6.50;4.55;;;;;;;28.76;16.44;96097.31;5053942;28;20065;-49
2021/11/10 05:28:41;;;;;;;7.32;5.10;;;;;;;28.64;16.29;96094.06;5036379;28;20056;-67
2021/11/10 05:31:08;;;;;;;5.82;4.53;;;;;;;28.84;15.92;96107.03;5054853;28;20049;-49
2021/11/10 05:33:35;;;;;;;6.93;4.72;;;;;;;29.41;16.46;96099.03;5065832;28;20044;-45
2021/11/10 05:36:03;;;;;;;7.32;4.43;;;;;;;29.34;16.74;96105.09;5074082;28;20048;-49
2021/11/10 05:38:30;;;;;;;10.38;4.95;;;;;;;30.38;16.18;96098.97;5064204;28;20041;-59
2021/11/10 05:40:57;;;;;;;14.02;7.80;;;;;;;30.70;15.81;96112.75;5046843;28;20049;-58
2021/11/10 05:43:24;;;;;;;12.50;8.10;;;;;;;29.74;15.56;96109.88;5062677;28;20057;-56
2021/11/10 05:45:51;;;;;;;10.82;7.03;;;;;;;29.44;16.74;96107.19;5053956;28;20044;-60
2021/11/10 05:48:18;;;;;;;9.35;5.68;;;;;;;30.05;16.45;96114.06;5066332;28;20434;-55
2021/11/10 05:50:46;;;;;;;8.40;6.80;;;;;;;30.52;16.13;96115.28;5069034;28;20041;-49
2021/11/10 05:53:13;;;;;;;13.48;9.20;;;;;;;29.54;15.97;96115.75;5071971;28;20466;-57
2021/11/10 05:55:41;;;;;;;11.63;8.38;;;;;;;29.15;15.91;96118.69;5072392;28;20044;-61
2021/11/10 05:58:10;;;;;;;10.35;6.88;;;;;;;29.16;16.16;96122.94;5057393;28;20371;-55
2021/11/10 06:00:37;;;;;;;10.80;6.80;;;;;;;30.00;15.87;96122.47;5053385;28;20371;-56
2021/11/10 06:03:04;;;;;;;8.82;6.65;;;;;;;30.20;16.44;96122.31;5071107;28;20056;-55
2021/11/10 06:05:31;;;;;;;9.95;6.75;;;;;;;30.51;15.68;96129.94;5073079;28;20051;-57
2021/11/10 06:07:58;;;;;;;7.30;6.30;;;;;;;30.62;15.21;96133.53;5073484;28;20048;-61
2021/11/10 06:10:25;;;;;;;9.27;7.40;;;;;;;30.68;15.45;96139.34;5063149;28;20045;-59
2021/11/10 06:12:52;;;;;;;12.90;7.38;;;;;;;30.25;15.29;96138.16;5057164;28;20474;-56
2021/11/10 06:15:19;;;;;;;8.32;5.80;;;;;;;30.04;15.20;96133.31;5073037;28;20048;-53
2021/11/10 06:17:46;;;;;;;6.53;5.63;;;;;;;29.87;15.39;96145.41;5056126;28;20045;-57
2021/11/10 06:20:15;;;;;;;6.65;4.97;;;;;;;29.79;15.04;96138.41;5052815;28;20053;-56
2021/11/10 06:22:43;;;;;;;7.70;5.57;;;;;;;29.76;15.58;96155.31;5058736;28;20040;-57
2021/11/10 06:25:10;;;;;;;7.82;6.38;;;;;;;29.97;16.50;96152.88;5076656;28;20049;-57
2021/11/10 06:27:38;;;;;;;10.40;6.28;;;;;;;30.56;15.58;96159.28;5059223;28;20502;-55
2021/11/10 06:30:06;;;;;;;7.10;5.90;;;;;;;30.78;15.18;96154.09;5076837;28;20079;-53
2021/11/10 06:32:33;;;;;;;7.65;5.43;;;;;;;31.20;15.87;96156.34;5066068;28;20364;-53
2021/11/10 06:35:00;;;;;;;7.97;5.63;;;;;;;30.71;15.52;96154.00;5075768;28;20048;-56
2021/11/10 06:37:27;;;;;;;6.60;5.68;;;;;;;31.36;15.13;96156.06;5075421;28;20048;-57
2021/11/10 06:39:55;;;;;;;42.17;32.85;;;;;;;31.39;14.62;96152.59;5064612;28;20367;-58
2021/11/10 06:42:23;;;;;;;88.82;41.00;;;;;;;31.36;14.59;96153.38;5056568;28;20045;-58
2021/11/10 06:44:50;;;;;;;93.47;41.75;;;;;;;31.42;13.65;96149.91;5075456;28;20040;-55
2021/11/10 06:47:18;;;;;;;90.53;41.28;;;;;;;31.27;13.74;96149.06;5075605;28;20052;-57
2021/11/10 06:49:45;;;;;;;67.90;38.53;;;;;;;31.44;13.52;96146.84;5076337;28;20355;-56
2021/11/10 06:52:12;;;;;;;55.70;35.78;;;;;;;31.36;13.26;96150.66;5076540;28;20359;-56
2021/11/10 06:54:39;;;;;;;56.95;35.72;;;;;;;31.58;13.43;96147.69;5075961;28;20044;-53
2021/11/10 06:57:06;;;;;;;53.20;34.65;;;;;;;31.87;13.11;96151.31;5076530;28;20056;-57
2021/11/10 06:59:34;;;;;;;52.58;34.20;;;;;;;31.49;13.29;96146.47;5076350;28;20383;-55
2021/11/10 07:02:01;;;;;;;51.88;33.75;;;;;;;30.74;13.42;96147.91;5065903;28;20087;-55
2021/11/10 07:04:28;;;;;;;45.33;31.88;;;;;;;31.60;12.84;96160.84;5070643;28;20056;-55
2021/11/10 07:06:55;;;;;;;40.58;30.27;;;;;;;31.85;12.87;96156.34;5076349;28;20040;-55
2021/11/10 07:09:22;;;;;;;55.95;51.08;;;;;;;32.11;12.20;96149.09;5076164;28;20048;-58
2021/11/10 07:11:49;;;;;;;170.23;72.85;;;;;;;31.69;12.72;96155.84;5075279;28;20048;-57
2021/11/10 07:14:16;;;;;;;198.80;73.93;;;;;;;32.47;12.10;96158.84;5075579;28;20360;-55
2021/11/10 07:16:43;;;;;;;199.30;73.53;;;;;;;32.27;12.19;96162.28;5075959;28;20044;-55
2021/11/10 07:19:10;;;;;;;208.00;73.40;;;;;;;32.69;12.06;96158.88;5075801;28;20790;-55
2021/11/10 07:21:38;;;;;;;216.30;73.78;;;;;;;32.32;11.74;96168.09;5075965;28;20366;-59
2021/11/10 07:24:05;;;;;;;225.90;72.82;;;;;;;32.63;11.69;96160.41;5075341;28;20045;-48
2021/11/10 07:26:33;;;;;;;221.65;72.43;;;;;;;32.93;11.72;96150.00;5075930;28;20048;-56
2021/11/10 07:29:01;;;;;;;227.90;75.78;;;;;;;32.71;11.53;96151.13;5074675;28;20048;-57
2021/11/10 07:31:28;;;;;;;233.88;81.53;;;;;;;32.87;11.90;96151.56;5069560;28;20648;-56
2021/11/10 07:33:55;;;;;;;76.75;67.15;;;;;;;32.17;12.29;96150.25;5063549;28;20052;-57
2021/11/10 07:36:23;;;;;;;34.85;31.27;;;;;;;31.99;12.42;96142.06;5075613;28;20040;-55
2021/11/10 07:38:50;;;;;;;3.90;3.00;;;;;;;31.49;12.61;96147.28;5075235;28;20040;-56
2021/11/10 07:41:19;;;;;;;4.15;3.15;;;;;;;31.08;13.14;96146.59;5075345;28;20079;-56
2021/11/10 07:43:51;;;;;;;4.18;3.13;;;;;;;30.86;13.32;96156.47;5074796;28;20052;-55
2021/11/10 07:46:19;;;;;;;6.75;3.60;;;;;;;30.65;13.24;96148.19;5075525;28;20764;-55
2021/11/10 07:48:47;;;;;;;3.15;2.75;;;;;;;30.50;13.51;96155.38;5075491;28;20053;-56
2021/11/10 07:51:18;;;;;;;4.13;2.97;;;;;;;30.85;12.91;96143.34;5073753;28;20063;-55
2021/11/10 07:53:46;;;;;;;5.00;2.97;;;;;;;30.28;13.45;96138.19;5074876;28;20040;-58
2021/11/10 07:56:14;;;;;;;3.00;2.67;;;;;;;30.49;13.51;96153.81;5075328;28;20044;-56
2021/11/10 07:58:41;;;;;;;3.15;2.45;;;;;;;30.62;13.45;96144.31;5075113;28;20056;-57
2021/11/10 08:01:09;;;;;;;2.63;2.42;;;;;;;30.11;13.91;96138.00;5072113;28;20040;-56
2021/11/10 08:03:37;;;;;;;4.35;2.75;;;;;;;30.43;13.48;96139.09;5061327;28;20057;-57
2021/11/10 08:06:04;;;;;;;7.75;3.50;;;;;;;30.65;13.36;96146.25;5075056;28;20040;-57
2021/11/10 08:08:32;;;;;;;8.55;3.30;;;;;;;30.57;13.30;96144.63;5074953;28;20052;-55
2021/11/10 08:11:03;;;;;;;4.30;3.10;;;;;;;30.78;13.40;96148.69;5070647;28;20080;-58
2021/11/10 08:13:30;;;;;;;3.05;2.60;;;;;;;29.78;13.85;96143.00;5059941;28;20040;-57
2021/11/10 08:15:59;;;;;;;3.78;2.50;;;;;;;31.02;13.10;96140.00;5074562;28;20044;-55
2021/11/10 08:18:27;;;;;;;3.42;2.92;;;;;;;30.55;13.11;96141.53;5073799;28;20051;-54
2021/11/10 08:20:55;;;;;;;4.00;2.40;;;;;;;30.61;13.40;96137.38;5074665;28;20059;-55
2021/11/10 08:23:25;;;;;;;3.95;2.72;;;;;;;30.44;13.33;96137.16;5074598;28;20056;-56
2021/11/10 08:25:54;;;;;;;2.72;2.47;;;;;;;30.62;13.33;96132.75;5074414;28;20051;-54
2021/11/10 08:28:21;;;;;;;3.50;2.50;;;;;;;31.00;13.09;96123.41;5074346;28;20060;-55
2021/11/10 08:30:48;;;;;;;2.75;2.45;;;;;;;30.87;12.87;96124.84;5074414;28;20363;-55
2021/11/10 08:33:16;;;;;;;3.30;2.60;;;;;;;30.93;13.10;96116.00;5036854;28;20049;-55
2021/11/10 08:35:44;;;;;;;3.25;2.42;;;;;;;31.17;12.96;96120.06;5069400;28;20048;-57
2021/11/10 08:38:11;;;;;;;3.13;2.28;;;;;;;31.34;12.74;96115.91;5056703;28;20439;-54
2021/11/10 08:40:39;;;;;;;2.80;2.38;;;;;;;31.31;13.06;96115.91;5073932;28;20055;-55
2021/11/10 08:43:12;;;;;;;3.92;2.42;;;;;;;31.21;12.86;96106.56;5073474;28;20178;-55
2021/11/10 08:45:43;;;;;;;3.03;2.72;;;;;;;31.37;12.62;96119.78;5074136;28;20052;-56
2021/11/10 08:48:10;;;;;;;4.47;2.40;;;;;;;30.30;13.35;96118.94;5073998;28;20071;-55
2021/11/10 08:50:40;;;;;;;4.32;2.15;;;;;;;30.74;12.96;96115.50;5074245;28;20048;-54
2021/11/10 08:53:08;;;;;;;3.45;2.08;;;;;;;30.83;12.66;96114.03;5073029;28;20044;-54
2021/11/10 08:55:35;;;;;;;2.83;2.10;;;;;;;30.98;12.73;96120.31;5073919;28;20443;-56
2021/11/10 08:58:04;;;;;;;3.33;2.35;;;;;;;31.32;12.39;96117.44;5074239;28;20056;-55
2021/11/10 09:00:32;;;;;;;3.92;1.90;;;;;;;31.07;12.47;96106.47;5073789;28;20048;-55
2021/11/10 09:03:00;;;;;;;4.57;1.83;;;;;;;31.21;12.65;96115.44;5055691;28;20060;-55
2021/11/10 09:05:27;;;;;;;4.30;2.10;;;;;;;31.19;12.39;96115.06;5044451;28;20049;-55
2021/11/10 09:07:54;;;;;;;4.15;1.90;;;;;;;31.30;12.21;96109.72;5072628;28;20043;-55
2021/11/10 09:10:22;;;;;;;4.07;2.00;;;;;;;30.98;12.87;96104.13;5073011;28;20051;-56
2021/11/10 09:12:50;;;;;;;2.28;1.80;;;;;;;31.42;12.10;96105.91;5074173;28;20051;-55
2021/11/10 09:15:18;;;;;;;2.40;1.90;;;;;;;31.38;12.51;96095.09;5073723;28;20358;-55
2021/11/10 09:17:46;;;;;;;3.97;2.40;;;;;;;31.36;12.32;96102.03;5074318;28;20055;-55
2021/11/10 09:20:21;;;;;;;3.80;2.30;;;;;;;31.13;12.61;96092.22;5073981;28;20048;-54
2021/11/10 09:22:49;;;;;;;4.05;2.03;;;;;;;31.36;12.31;96107.44;5060262;28;20052;-57
2021/11/10 09:25:18;;;;;;;2.30;1.90;;;;;;;31.44;12.30;96098.19;5063587;28;20044;-56
2021/11/10 09:27:46;;;;;;;3.15;2.38;;;;;;;31.27;12.30;96097.75;5074220;28;20061;-55
2021/11/10 09:30:16;;;;;;;2.97;2.50;;;;;;;31.37;12.51;96088.16;5073978;28;20514;-56
2021/11/10 09:32:44;;;;;;;2.67;2.30;;;;;;;31.36;12.36;96086.59;5073391;28;20458;-55
2021/11/10 09:35:13;;;;;;;2.80;2.13;;;;;;;31.31;12.81;96089.66;5073516;28;20055;-56
2021/11/10 09:37:41;;;;;;;2.83;2.15;;;;;;;31.27;12.43;96084.25;5072463;28;20045;-55
2021/11/10 09:40:12;;;;;;;2.70;2.33;;;;;;;31.07;12.66;96080.25;5073330;28;20044;-54
2021/11/10 09:42:41;;;;;;;2.83;2.17;;;;;;;31.10;12.68;96084.88;5073743;28;20048;-54
2021/11/10 09:45:13;;;;;;;3.45;2.22;;;;;;;30.88;12.79;96085.91;5073382;28;20075;-54
2021/11/10 09:47:41;;;;;;;7.50;2.78;;;;;;;30.71;12.88;96073.03;5073712;28;20049;-55
2021/11/10 09:50:10;;;;;;;5.05;2.45;;;;;;;30.90;12.63;96072.78;5069259;28;20040;-53
2021/11/10 09:52:38;;;;;;;3.72;2.50;;;;;;;30.67;12.88;96076.50;5073722;28;20048;-55
2021/11/10 09:55:08;;;;;;;13.52;2.85;;;;;;;30.97;12.74;96064.75;5073226;28;20486;-53
2021/11/10 09:57:35;;;;;;;5.35;2.60;;;;;;;30.70;13.03;96072.28;5076829;28;20056;-53
2021/11/10 10:00:08;;;;;;;3.55;2.60;;;;;;;31.05;12.83;96060.16;5077209;28;20565;-54
2021/11/10 10:02:41;;;;;;;3.53;2.75;;;;;;;31.28;12.28;96055.31;5075752;28;20063;-55
2021/11/10 10:05:08;;;;;;;3.70;2.70;;;;;;;31.16;12.65;96059.09;5077177;28;20473;-54
2021/11/10 10:07:36;;;;;;;3.03;2.72;;;;;;;31.05;12.75;96058.25;5059389;28;20466;-54
2021/11/10 10:10:04;;;;;;;3.60;2.47;;;;;;;30.48;12.97;96060.53;5058381;28;20055;-54
2021/11/10 10:12:31;;;;;;;2.90;2.60;;;;;;;30.96;12.54;96055.09;5077200;28;20044;-53
2021/11/10 10:14:58;;;;;;;5.28;2.42;;;;;;;30.94;12.84;96043.88;5076904;28;20051;-56
2021/11/10 10:17:41;;;;;;;3.90;2.58;;;;;;;30.91;12.81;96050.81;5076942;28;20048;-54
2021/11/10 10:20:31;;;;;;;2.70;2.42;;;;;;;31.05;12.66;96033.94;5076030;28;20051;-53
2021/11/10 10:23:02;;;;;;;4.93;2.45;;;;;;;30.79;12.82;96029.56;5077046;28;20435;-55
2021/11/10 10:25:56;;;;;;;3.72;2.63;;;;;;;31.33;12.58;96037.94;5076795;28;20056;-54
2021/11/10 10:28:34;;;;;;;3.22;2.17;;;;;;;30.59;12.92;96036.31;5076976;28;20051;-56
2021/11/10 10:31:07;;;;;;;2.13;1.92;;;;;;;30.58;13.07;96032.06;5057387;28;20056;-55
2021/11/10 10:33:38;;;;;;;2.55;2.25;;;;;;;30.54;13.25;96026.66;5076880;28;20041;-54
2021/11/10 10:36:10;;;;;;;2.95;2.60;;;;;;;30.74;13.06;96029.13;5076570;28;20040;-55
2021/11/10 10:38:42;;;;;;;3.10;2.15;;;;;;;30.48;13.03;96028.16;5076450;28;20048;-56
2021/11/10 10:41:10;;;;;;;2.17;1.98;;;;;;;30.63;13.13;96032.53;5075780;28;20051;-55
2021/11/10 10:43:48;;;;;;;4.20;2.50;;;;;;;30.59;13.04;96020.91;5076643;28;20045;-56
2021/11/10 10:46:19;;;;;;;2.67;2.47;;;;;;;30.46;12.96;96018.91;5076379;28;20447;-56
2021/11/10 10:48:46;;;;;;;3.90;2.80;;;;;;;30.84;12.69;96013.00;5076481;28;20052;-54
2021/11/10 10:51:16;;;;;;;4.35;2.80;;;;;;;30.92;12.68;96003.00;5075589;28;20455;-56
2021/11/10 10:53:46;;;;;;;3.08;2.40;;;;;;;30.52;12.94;96007.38;5075486;28;20126;-55
2021/11/10 10:56:21;;;;;;;3.75;2.40;;;;;;;30.85;12.81;95997.56;5076404;28;20048;-55
2021/11/10 10:58:56;;;;;;;5.15;2.63;;;;;;;30.08;13.19;96005.47;5076127;28;20055;-55
2021/11/10 11:01:32;;;;;;;3.55;2.78;;;;;;;30.39;13.03;96008.81;5076005;28;20430;-55
2021/11/10 11:04:05;;;;;;;3.40;2.50;;;;;;;30.48;12.93;96003.88;5076169;28;20087;-56
2021/11/10 11:06:45;;;;;;;3.30;2.58;;;;;;;30.73;13.04;95995.19;5076070;28;20044;-53
2021/11/10 11:09:14;;;;;;;8.15;4.90;;;;;;;31.36;12.59;95999.38;5075608;28;20048;-54
2021/11/10 11:12:04;;;;;;;8.25;7.55;;;;;;;31.31;13.35;95994.34;5069001;28;20040;-57
2021/11/10 11:17:23;;;;;;;5.70;4.38;;;;;;;29.87;13.94;95999.88;5072071;28;20045;-55
2021/11/10 11:20:06;;;;;;;6.38;5.10;;;;;;;29.39;13.88;95997.03;5057094;28;20040;-55
2021/11/10 11:22:41;;;;;;;4.13;3.40;;;;;;;29.61;13.79;95978.44;5062916;28;20041;-56
2021/11/10 11:25:12;;;;;;;3.78;3.47;;;;;;;30.85;13.21;95992.94;5057921;28;20048;-55
2021/11/10 11:27:57;;;;;;;5.60;4.18;;;;;;;30.94;13.07;95973.69;5055792;28;20506;-54
2021/11/10 11:30:29;;;;;;;4.32;3.50;;;;;;;30.85;12.94;95970.56;5069104;28;20045;-54
2021/11/10 11:32:59;;;;;;;5.20;3.90;;;;;;;30.26;13.61;95967.09;5075195;28;20056;-55
2021/11/10 11:35:33;;;;;;;7.65;3.55;;;;;;;30.11;13.41;95981.63;5074720;28;20370;-56
2021/11/10 11:38:07;;;;;;;6.38;3.08;;;;;;;29.73;13.77;95962.78;5068720;28;20558;-56
2021/11/10 11:40:35;;;;;;;5.38;3.10;;;;;;;29.70;13.85;95968.16;5070429;28;20052;-55
2021/11/10 11:43:08;;;;;;;3.50;2.90;;;;;;;29.45;13.58;95968.66;5075476;28;20056;-56